DAH2014 DAAG-LEBL
Flight info
| Callsign | DAH2014 |
|---|---|
| Flight time | 0h 58m |
| Altitude | 34000 |
| Route | SADAF1C SADAF DCT SURIB DCT INSUB DCT RONDU DCT IZA DCT OKITI DCT GODOX DCT EPAMA DCT MARTA |
| Aircraft | B738/M-SDE2E3FGHIRWXY/LB1 |
Departure
| Time | 2026-04-27 19:00 |
|---|---|
| Airport | Houari Boumediene Airport (DAAG) |
Arrival
| Time | 2026-04-27 19:58 |
|---|---|
| Airport | Josep Tarradellas Barcelona-El Prat Airport (LEBL) |
| Time | Latitude | Longitude | Altitude | Speed | Heading |
|---|---|---|---|---|---|
| 2026-04-27 18:41 | 36.69598 | 3.20293 | 69 ft | 0 kts | 326° |
| 2026-04-27 18:53 | 36.69596 | 3.20295 | 69 ft | 3 kts | 326° |
| 2026-04-27 18:53 | 36.69578 | 3.20310 | 59 ft | 3 kts | 324° |
| 2026-04-27 18:54 | 36.69561 | 3.20331 | 66 ft | 4 kts | 277° |
| 2026-04-27 18:54 | 36.69569 | 3.20354 | 59 ft | 4 kts | 211° |
| 2026-04-27 18:54 | 36.69594 | 3.20367 | 64 ft | 4 kts | 192° |
| 2026-04-27 18:54 | 36.69615 | 3.20370 | 67 ft | 4 kts | 182° |
| 2026-04-27 18:55 | 36.69641 | 3.20371 | 67 ft | 3 kts | 180° |
| 2026-04-27 18:55 | 36.69645 | 3.20371 | 66 ft | 0 kts | 180° |
| 2026-04-27 18:56 | 36.69635 | 3.20373 | 62 ft | 6 kts | 166° |
| 2026-04-27 18:57 | 36.69604 | 3.20453 | 69 ft | 16 kts | 95° |
| 2026-04-27 18:57 | 36.69601 | 3.20597 | 69 ft | 17 kts | 91° |
| 2026-04-27 18:57 | 36.69598 | 3.20739 | 69 ft | 16 kts | 97° |
| 2026-04-27 18:57 | 36.69522 | 3.20824 | 66 ft | 16 kts | 161° |
| 2026-04-27 18:58 | 36.69422 | 3.20867 | 68 ft | 15 kts | 161° |
| 2026-04-27 18:58 | 36.69379 | 3.20913 | 62 ft | 13 kts | 95° |
| 2026-04-27 18:58 | 36.69385 | 3.21082 | 69 ft | 18 kts | 90° |
| 2026-04-27 18:58 | 36.69384 | 3.21251 | 69 ft | 21 kts | 90° |
| 2026-04-27 18:59 | 36.69384 | 3.21447 | 69 ft | 24 kts | 90° |
| 2026-04-27 18:59 | 36.69382 | 3.21667 | 69 ft | 27 kts | 91° |
| 2026-04-27 18:59 | 36.69381 | 3.21910 | 72 ft | 28 kts | 90° |
| 2026-04-27 18:59 | 36.69461 | 3.22143 | 77 ft | 39 kts | 53° |
| 2026-04-27 19:00 | 36.69771 | 3.22650 | 76 ft | 107 kts | 53° |
| 2026-04-27 19:00 | 36.70339 | 3.23574 | 93 ft | 158 kts | 52° |
| 2026-04-27 19:00 | 36.71016 | 3.24654 | 739 ft | 157 kts | 51° |
| 2026-04-27 19:00 | 36.71931 | 3.25390 | 1369 ft | 163 kts | 15° |
| 2026-04-27 19:01 | 36.73084 | 3.25412 | 1981 ft | 171 kts | 345° |
| 2026-04-27 19:01 | 36.74009 | 3.24508 | 2597 ft | 175 kts | 301° |
| 2026-04-27 19:01 | 36.74598 | 3.23157 | 3126 ft | 188 kts | 302° |
| 2026-04-27 19:01 | 36.75284 | 3.21676 | 3523 ft | 208 kts | 301° |
| 2026-04-27 19:02 | 36.76043 | 3.20037 | 3791 ft | 228 kts | 302° |
| 2026-04-27 19:02 | 36.76896 | 3.18246 | 3967 ft | 253 kts | 302° |
| 2026-04-27 19:02 | 36.77838 | 3.16279 | 4366 ft | 271 kts | 302° |
| 2026-04-27 19:02 | 36.78839 | 3.14266 | 5085 ft | 274 kts | 309° |
| 2026-04-27 19:03 | 36.80294 | 3.12757 | 5855 ft | 275 kts | 327° |
| 2026-04-27 19:03 | 36.81969 | 3.11456 | 6354 ft | 297 kts | 327° |
| 2026-04-27 19:03 | 36.83825 | 3.10030 | 6589 ft | 327 kts | 328° |
| 2026-04-27 19:03 | 36.85138 | 3.09020 | 6900 ft | 339 kts | 327° |
| 2026-04-27 19:04 | 36.87853 | 3.06925 | 7979 ft | 346 kts | 327° |
| 2026-04-27 19:04 | 36.89913 | 3.05328 | 8896 ft | 350 kts | 326° |
| 2026-04-27 19:04 | 36.91985 | 3.03714 | 9843 ft | 352 kts | 326° |
| 2026-04-27 19:04 | 36.94072 | 3.02086 | 10681 ft | 355 kts | 326° |
| 2026-04-27 19:05 | 36.96171 | 3.00444 | 11515 ft | 358 kts | 326° |
| 2026-04-27 19:05 | 36.98293 | 2.98783 | 12334 ft | 361 kts | 325° |
| 2026-04-27 19:05 | 37.00431 | 2.97108 | 13116 ft | 365 kts | 325° |
| 2026-04-27 19:05 | 37.02601 | 2.95407 | 13872 ft | 370 kts | 325° |
| 2026-04-27 19:06 | 37.04789 | 2.93690 | 14558 ft | 373 kts | 326° |
| 2026-04-27 19:06 | 37.07006 | 2.91950 | 15231 ft | 378 kts | 326° |
| 2026-04-27 19:06 | 37.09239 | 2.90196 | 15941 ft | 381 kts | 325° |
| 2026-04-27 19:06 | 37.11498 | 2.88420 | 16609 ft | 385 kts | 325° |
| 2026-04-27 19:07 | 37.13769 | 2.86622 | 17330 ft | 387 kts | 325° |
| 2026-04-27 19:07 | 37.16056 | 2.84798 | 17928 ft | 393 kts | 326° |
| 2026-04-27 19:07 | 37.18372 | 2.82947 | 18563 ft | 396 kts | 326° |
| 2026-04-27 19:07 | 37.20675 | 2.81104 | 19130 ft | 399 kts | 326° |
| 2026-04-27 19:08 | 37.23026 | 2.79224 | 19722 ft | 401 kts | 325° |
| 2026-04-27 19:08 | 37.25393 | 2.77341 | 20333 ft | 404 kts | 325° |
| 2026-04-27 19:08 | 37.27768 | 2.75438 | 20920 ft | 407 kts | 326° |
| 2026-04-27 19:08 | 37.30171 | 2.73538 | 21426 ft | 411 kts | 326° |
| 2026-04-27 19:09 | 37.32597 | 2.71596 | 21966 ft | 414 kts | 326° |
| 2026-04-27 19:09 | 37.35025 | 2.69629 | 22484 ft | 418 kts | 325° |
| 2026-04-27 19:09 | 37.37480 | 2.67642 | 23023 ft | 420 kts | 325° |
| 2026-04-27 19:09 | 37.39950 | 2.65647 | 23551 ft | 423 kts | 325° |
| 2026-04-27 19:10 | 37.42438 | 2.63641 | 24003 ft | 425 kts | 325° |
| 2026-04-27 19:10 | 37.44932 | 2.61633 | 24461 ft | 427 kts | 326° |
| 2026-04-27 19:10 | 37.47448 | 2.59606 | 24874 ft | 430 kts | 325° |
| 2026-04-27 19:10 | 37.48299 | 2.58920 | 25015 ft | 431 kts | 326° |
| 2026-04-27 19:11 | 37.51659 | 2.56211 | 25571 ft | 434 kts | 325° |
| 2026-04-27 19:11 | 37.54209 | 2.54152 | 26011 ft | 436 kts | 325° |
| 2026-04-27 19:11 | 37.56768 | 2.52085 | 26421 ft | 438 kts | 325° |
| 2026-04-27 19:11 | 37.59334 | 2.50008 | 26810 ft | 440 kts | 325° |
| 2026-04-27 19:12 | 37.61918 | 2.47917 | 27197 ft | 442 kts | 325° |
| 2026-04-27 19:12 | 37.64512 | 2.45815 | 27588 ft | 444 kts | 325° |
| 2026-04-27 19:12 | 37.67111 | 2.43707 | 27961 ft | 445 kts | 325° |
| 2026-04-27 19:12 | 37.69721 | 2.41588 | 28353 ft | 447 kts | 325° |
| 2026-04-27 19:13 | 37.72358 | 2.39445 | 28635 ft | 451 kts | 325° |
| 2026-04-27 19:13 | 37.75001 | 2.37297 | 28958 ft | 453 kts | 325° |
| 2026-04-27 19:13 | 37.77653 | 2.35140 | 29447 ft | 452 kts | 325° |
| 2026-04-27 19:13 | 37.80280 | 2.33001 | 30054 ft | 448 kts | 325° |
| 2026-04-27 19:14 | 37.82911 | 2.30912 | 30563 ft | 445 kts | 326° |
| 2026-04-27 19:14 | 37.85556 | 2.28894 | 30970 ft | 443 kts | 327° |
| 2026-04-27 19:14 | 37.88211 | 2.26899 | 31325 ft | 444 kts | 327° |
| 2026-04-27 19:14 | 37.90866 | 2.24906 | 31694 ft | 443 kts | 327° |
| 2026-04-27 19:15 | 37.93511 | 2.22912 | 32125 ft | 441 kts | 327° |
| 2026-04-27 19:15 | 37.96140 | 2.20921 | 32563 ft | 439 kts | 326° |
| 2026-04-27 19:15 | 37.98745 | 2.18938 | 33002 ft | 437 kts | 326° |
| 2026-04-27 19:15 | 38.01350 | 2.16950 | 33390 ft | 436 kts | 326° |
| 2026-04-27 19:16 | 38.03949 | 2.14963 | 33755 ft | 435 kts | 326° |
| 2026-04-27 19:16 | 38.05661 | 2.13652 | 34002 ft | 435 kts | 326° |
| 2026-04-27 19:16 | 38.09145 | 2.10981 | 34056 ft | 440 kts | 326° |
| 2026-04-27 19:17 | 38.14379 | 2.06966 | 34059 ft | 437 kts | 326° |
| 2026-04-27 19:17 | 38.19655 | 2.03336 | 34068 ft | 436 kts | 336° |
| 2026-04-27 19:18 | 38.25374 | 2.00758 | 34071 ft | 436 kts | 338° |
| 2026-04-27 19:18 | 38.31099 | 1.98241 | 34073 ft | 435 kts | 338° |
| 2026-04-27 19:19 | 38.36805 | 1.95674 | 34077 ft | 435 kts | 337° |
| 2026-04-27 19:19 | 38.42505 | 1.93068 | 34076 ft | 435 kts | 337° |
| 2026-04-27 19:20 | 38.48208 | 1.90446 | 34066 ft | 436 kts | 337° |
| 2026-04-27 19:20 | 38.53921 | 1.87813 | 34079 ft | 437 kts | 337° |
| 2026-04-27 19:21 | 38.59645 | 1.85173 | 34080 ft | 438 kts | 337° |
| 2026-04-27 19:21 | 38.65391 | 1.82518 | 34090 ft | 439 kts | 337° |
| 2026-04-27 19:22 | 38.71139 | 1.79858 | 34076 ft | 440 kts | 337° |
| 2026-04-27 19:22 | 38.76898 | 1.77188 | 34084 ft | 440 kts | 337° |
| 2026-04-27 19:23 | 38.82659 | 1.74514 | 34076 ft | 440 kts | 337° |
| 2026-04-27 19:23 | 38.88419 | 1.71835 | 34094 ft | 440 kts | 337° |
| 2026-04-27 19:24 | 38.94190 | 1.69146 | 34083 ft | 440 kts | 337° |
| 2026-04-27 19:24 | 38.99919 | 1.66472 | 34079 ft | 440 kts | 337° |
| 2026-04-27 19:25 | 39.05659 | 1.63787 | 34085 ft | 439 kts | 337° |
| 2026-04-27 19:25 | 39.11398 | 1.61100 | 34094 ft | 439 kts | 338° |
| 2026-04-27 19:26 | 39.17144 | 1.58403 | 34091 ft | 438 kts | 338° |
| 2026-04-27 19:26 | 39.22873 | 1.55711 | 34090 ft | 438 kts | 338° |
| 2026-04-27 19:27 | 39.28601 | 1.53014 | 34089 ft | 438 kts | 338° |
| 2026-04-27 19:27 | 39.34323 | 1.50315 | 34101 ft | 438 kts | 338° |
| 2026-04-27 19:28 | 39.40046 | 1.47610 | 34095 ft | 438 kts | 338° |
| 2026-04-27 19:28 | 39.45774 | 1.44899 | 34093 ft | 438 kts | 338° |
| 2026-04-27 19:29 | 39.51511 | 1.42178 | 34095 ft | 439 kts | 338° |
| 2026-04-27 19:29 | 39.57244 | 1.39455 | 34106 ft | 439 kts | 338° |
| 2026-04-27 19:30 | 39.63164 | 1.37475 | 34100 ft | 443 kts | 351° |
| 2026-04-27 19:30 | 39.69309 | 1.36714 | 34097 ft | 444 kts | 352° |
| 2026-04-27 19:31 | 39.75463 | 1.35976 | 34099 ft | 444 kts | 352° |
| 2026-04-27 19:31 | 39.81612 | 1.35190 | 34108 ft | 444 kts | 352° |
| 2026-04-27 19:31 | 39.84714 | 1.34781 | 33507 ft | 450 kts | 352° |
| 2026-04-27 19:32 | 39.87814 | 1.34370 | 32849 ft | 447 kts | 352° |
| 2026-04-27 19:32 | 39.90863 | 1.33965 | 32160 ft | 446 kts | 352° |
| 2026-04-27 19:32 | 39.93953 | 1.33554 | 31411 ft | 447 kts | 352° |
| 2026-04-27 19:32 | 39.97043 | 1.33142 | 30656 ft | 447 kts | 352° |
| 2026-04-27 19:33 | 40.00134 | 1.32731 | 30057 ft | 444 kts | 352° |
| 2026-04-27 19:33 | 40.02208 | 1.32455 | 29626 ft | 442 kts | 352° |
| 2026-04-27 19:33 | 40.06234 | 1.31937 | 28858 ft | 435 kts | 351° |
| 2026-04-27 19:33 | 40.09219 | 1.31489 | 28294 ft | 430 kts | 352° |
| 2026-04-27 19:34 | 40.12179 | 1.31092 | 27741 ft | 426 kts | 353° |
| 2026-04-27 19:34 | 40.15119 | 1.30731 | 27193 ft | 422 kts | 353° |
| 2026-04-27 19:34 | 40.18031 | 1.30386 | 26658 ft | 418 kts | 353° |
| 2026-04-27 19:34 | 40.20914 | 1.29969 | 26127 ft | 415 kts | 352° |
| 2026-04-27 19:35 | 40.23777 | 1.29559 | 25600 ft | 412 kts | 353° |
| 2026-04-27 19:35 | 40.26623 | 1.29184 | 25087 ft | 410 kts | 353° |
| 2026-04-27 19:35 | 40.29453 | 1.28810 | 24566 ft | 408 kts | 352° |
| 2026-04-27 19:35 | 40.32265 | 1.28640 | 24312 ft | 400 kts | 5° |
| 2026-04-27 19:36 | 40.34906 | 1.29624 | 24110 ft | 393 kts | 25° |
| 2026-04-27 19:36 | 40.37182 | 1.31578 | 23749 ft | 391 kts | 41° |
| 2026-04-27 19:36 | 40.38969 | 1.34280 | 23377 ft | 398 kts | 54° |
| 2026-04-27 19:36 | 40.40574 | 1.37279 | 22980 ft | 405 kts | 56° |
| 2026-04-27 19:37 | 40.42163 | 1.40367 | 22567 ft | 407 kts | 56° |
| 2026-04-27 19:37 | 40.43728 | 1.43431 | 22172 ft | 402 kts | 56° |
| 2026-04-27 19:37 | 40.45287 | 1.46463 | 21797 ft | 398 kts | 56° |
| 2026-04-27 19:37 | 40.46834 | 1.49450 | 21428 ft | 394 kts | 56° |
| 2026-04-27 19:38 | 40.48362 | 1.52417 | 21063 ft | 391 kts | 56° |
| 2026-04-27 19:38 | 40.49877 | 1.55363 | 20705 ft | 388 kts | 55° |
| 2026-04-27 19:38 | 40.51409 | 1.58277 | 20359 ft | 386 kts | 55° |
| 2026-04-27 19:38 | 40.52920 | 1.61133 | 20006 ft | 385 kts | 55° |
| 2026-04-27 19:39 | 40.54444 | 1.64021 | 19655 ft | 383 kts | 55° |
| 2026-04-27 19:39 | 40.55963 | 1.66911 | 19306 ft | 382 kts | 55° |
| 2026-04-27 19:39 | 40.57469 | 1.69787 | 18952 ft | 382 kts | 56° |
| 2026-04-27 19:39 | 40.58972 | 1.72664 | 18601 ft | 381 kts | 56° |
| 2026-04-27 19:40 | 40.60471 | 1.75538 | 18215 ft | 380 kts | 56° |
| 2026-04-27 19:40 | 40.61960 | 1.78399 | 17830 ft | 378 kts | 56° |
| 2026-04-27 19:40 | 40.63444 | 1.81251 | 17463 ft | 376 kts | 56° |
| 2026-04-27 19:40 | 40.64906 | 1.84061 | 17089 ft | 368 kts | 56° |
| 2026-04-27 19:41 | 40.66338 | 1.86818 | 16578 ft | 361 kts | 56° |
| 2026-04-27 19:41 | 40.67753 | 1.89544 | 15918 ft | 361 kts | 56° |
| 2026-04-27 19:41 | 40.69258 | 1.92175 | 15450 ft | 357 kts | 44° |
| 2026-04-27 19:41 | 40.71238 | 1.94028 | 14905 ft | 347 kts | 28° |
| 2026-04-27 19:42 | 40.73352 | 1.95534 | 14204 ft | 344 kts | 27° |
| 2026-04-27 19:42 | 40.75462 | 1.96994 | 13468 ft | 341 kts | 27° |
| 2026-04-27 19:42 | 40.77549 | 1.98444 | 12861 ft | 337 kts | 27° |
| 2026-04-27 19:42 | 40.79614 | 1.99895 | 12432 ft | 336 kts | 28° |
| 2026-04-27 19:43 | 40.81668 | 2.01351 | 12040 ft | 334 kts | 28° |
| 2026-04-27 19:43 | 40.83705 | 2.02805 | 11660 ft | 332 kts | 28° |
| 2026-04-27 19:43 | 40.85716 | 2.04246 | 11279 ft | 325 kts | 28° |
| 2026-04-27 19:43 | 40.87679 | 2.05654 | 10912 ft | 317 kts | 28° |
| 2026-04-27 19:44 | 40.89569 | 2.07013 | 10565 ft | 309 kts | 28° |
| 2026-04-27 19:44 | 40.91433 | 2.08352 | 10219 ft | 302 kts | 28° |
| 2026-04-27 19:44 | 40.93230 | 2.09663 | 10107 ft | 285 kts | 29° |
| 2026-04-27 19:44 | 40.94933 | 2.10939 | 9963 ft | 279 kts | 29° |
| 2026-04-27 19:45 | 40.96629 | 2.12218 | 9873 ft | 283 kts | 29° |
| 2026-04-27 19:45 | 40.98354 | 2.13519 | 9779 ft | 288 kts | 29° |
| 2026-04-27 19:45 | 41.00108 | 2.14842 | 9675 ft | 290 kts | 29° |
| 2026-04-27 19:45 | 41.01838 | 2.16146 | 9437 ft | 285 kts | 30° |
| 2026-04-27 19:46 | 41.03550 | 2.17436 | 9044 ft | 282 kts | 30° |
| 2026-04-27 19:46 | 41.05260 | 2.18725 | 8587 ft | 282 kts | 30° |
| 2026-04-27 19:46 | 41.06961 | 2.20008 | 8186 ft | 281 kts | 30° |
| 2026-04-27 19:46 | 41.08654 | 2.21286 | 7798 ft | 279 kts | 30° |
| 2026-04-27 19:47 | 41.10337 | 2.22557 | 7418 ft | 277 kts | 30° |
| 2026-04-27 19:47 | 41.12003 | 2.23815 | 7029 ft | 275 kts | 30° |
| 2026-04-27 19:47 | 41.13648 | 2.25058 | 6646 ft | 274 kts | 31° |
| 2026-04-27 19:47 | 41.15301 | 2.26308 | 6267 ft | 272 kts | 31° |
| 2026-04-27 19:48 | 41.16938 | 2.27550 | 5877 ft | 271 kts | 32° |
| 2026-04-27 19:48 | 41.18499 | 2.28939 | 5473 ft | 269 kts | 36° |
| 2026-04-27 19:48 | 41.20014 | 2.30385 | 5157 ft | 264 kts | 37° |
| 2026-04-27 19:48 | 41.21466 | 2.31759 | 5025 ft | 249 kts | 36° |
| 2026-04-27 19:49 | 41.22849 | 2.33050 | 4825 ft | 238 kts | 36° |
| 2026-04-27 19:49 | 41.24174 | 2.34289 | 4597 ft | 227 kts | 36° |
| 2026-04-27 19:49 | 41.25429 | 2.35465 | 4322 ft | 215 kts | 36° |
| 2026-04-27 19:49 | 41.26627 | 2.36589 | 4070 ft | 207 kts | 36° |
| 2026-04-27 19:50 | 41.27789 | 2.37682 | 3816 ft | 203 kts | 36° |
| 2026-04-27 19:50 | 41.28923 | 2.38773 | 3560 ft | 199 kts | 37° |
| 2026-04-27 19:50 | 41.30033 | 2.39857 | 3320 ft | 197 kts | 37° |
| 2026-04-27 19:50 | 41.31132 | 2.40936 | 3075 ft | 196 kts | 37° |
| 2026-04-27 19:51 | 41.32226 | 2.42012 | 2897 ft | 193 kts | 37° |
| 2026-04-27 19:51 | 41.33317 | 2.43069 | 2773 ft | 195 kts | 36° |
| 2026-04-27 19:51 | 41.34428 | 2.44138 | 2668 ft | 198 kts | 36° |
| 2026-04-27 19:51 | 41.35554 | 2.45194 | 2534 ft | 197 kts | 30° |
| 2026-04-27 19:52 | 41.36867 | 2.45603 | 2394 ft | 199 kts | 352° |
| 2026-04-27 19:52 | 41.37739 | 2.45200 | 2345 ft | 199 kts | 326° |
| 2026-04-27 19:52 | 41.38706 | 2.43206 | 2307 ft | 199 kts | 276° |
| 2026-04-27 19:52 | 41.38696 | 2.41366 | 2315 ft | 199 kts | 267° |
| 2026-04-27 19:53 | 41.38572 | 2.38295 | 2299 ft | 200 kts | 267° |
| 2026-04-27 19:53 | 41.38468 | 2.35829 | 2299 ft | 199 kts | 267° |
| 2026-04-27 19:53 | 41.38415 | 2.34612 | 2294 ft | 198 kts | 267° |
| 2026-04-27 19:54 | 41.38225 | 2.32847 | 2295 ft | 188 kts | 252° |
| 2026-04-27 19:54 | 41.37741 | 2.31252 | 2314 ft | 185 kts | 246° |
| 2026-04-27 19:54 | 41.37205 | 2.29690 | 2308 ft | 185 kts | 245° |
| 2026-04-27 19:54 | 41.36672 | 2.28147 | 2288 ft | 179 kts | 245° |
| 2026-04-27 19:55 | 41.36162 | 2.26671 | 2287 ft | 173 kts | 245° |
| 2026-04-27 19:55 | 41.35664 | 2.25223 | 2290 ft | 171 kts | 245° |
| 2026-04-27 19:55 | 41.35163 | 2.23766 | 2180 ft | 176 kts | 245° |
| 2026-04-27 19:55 | 41.34654 | 2.22284 | 1959 ft | 176 kts | 245° |
| 2026-04-27 19:56 | 41.34154 | 2.20828 | 1721 ft | 168 kts | 245° |
| 2026-04-27 19:56 | 41.33685 | 2.19459 | 1519 ft | 156 kts | 245° |
| 2026-04-27 19:56 | 41.33245 | 2.18178 | 1306 ft | 151 kts | 245° |
| 2026-04-27 19:56 | 41.32814 | 2.16926 | 1102 ft | 148 kts | 244° |
| 2026-04-27 19:57 | 41.32388 | 2.15688 | 918 ft | 147 kts | 245° |
| 2026-04-27 19:57 | 41.31965 | 2.14452 | 731 ft | 146 kts | 245° |
| 2026-04-27 19:57 | 41.31543 | 2.13219 | 532 ft | 146 kts | 245° |
| 2026-04-27 19:57 | 41.31126 | 2.11997 | 331 ft | 145 kts | 245° |
| 2026-04-27 19:58 | 41.30711 | 2.10784 | 136 ft | 144 kts | 245° |
| 2026-04-27 19:58 | 41.30302 | 2.09590 | 18 ft | 132 kts | 245° |
| 2026-04-27 19:58 | 41.30013 | 2.08744 | 21 ft | 69 kts | 245° |
| 2026-04-27 19:58 | 41.29890 | 2.08413 | 24 ft | 23 kts | 236° |
| 2026-04-27 19:59 | 41.29782 | 2.08264 | 18 ft | 14 kts | 217° |
| 2026-04-27 19:59 | 41.29714 | 2.08199 | 16 ft | 12 kts | 210° |
| 2026-04-27 19:59 | 41.29697 | 2.08193 | 16 ft | 1 kts | 188° |
| 2026-04-27 19:59 | 41.29674 | 2.08197 | 16 ft | 8 kts | 165° |
| 2026-04-27 20:00 | 41.29588 | 2.08245 | 14 ft | 19 kts | 156° |
| 2026-04-27 20:00 | 41.29469 | 2.08316 | 16 ft | 18 kts | 155° |
| 2026-04-27 20:00 | 41.29355 | 2.08385 | 19 ft | 18 kts | 156° |
| 2026-04-27 20:00 | 41.29242 | 2.08448 | 20 ft | 17 kts | 172° |
| 2026-04-27 20:01 | 41.29128 | 2.08412 | 19 ft | 17 kts | 198° |
| 2026-04-27 20:01 | 41.29039 | 2.08331 | 18 ft | 16 kts | 246° |
| 2026-04-27 20:01 | 41.29004 | 2.08215 | 18 ft | 8 kts | 271° |
| 2026-04-27 20:01 | 41.29041 | 2.08178 | 18 ft | 6 kts | 335° |
| 2026-04-27 20:02 | 41.29065 | 2.08163 | 19 ft | 1 kts | 335° |
| 2026-04-27 20:02 | 41.29068 | 2.08162 | 19 ft | 0 kts | 335° |